createdAt,value
2022-12-31T00:02:11.467Z,4.77
2022-12-31T00:05:14.772Z,4.83
2022-12-31T00:08:17.288Z,4.84
2022-12-31T00:11:22.082Z,4.81
2022-12-31T00:14:24.666Z,4.77
2022-12-31T00:17:27.213Z,4.87
2022-12-31T00:20:30.033Z,4.90
2022-12-31T00:23:32.564Z,4.86
2022-12-31T00:26:35.175Z,4.77
2022-12-31T00:29:37.597Z,4.65
2022-12-31T00:32:41.041Z,4.84
2022-12-31T00:35:43.400Z,4.76
2022-12-31T00:38:47.913Z,4.80
2022-12-31T00:41:50.392Z,4.76
2022-12-31T00:44:52.871Z,4.61
2022-12-31T00:47:55.235Z,4.57
2022-12-31T00:50:58.243Z,4.67
2022-12-31T00:54:01.100Z,4.57
2022-12-31T00:57:03.702Z,4.62
2022-12-31T01:00:07.675Z,4.59
2022-12-31T01:03:10.813Z,4.57
2022-12-31T01:06:13.811Z,4.55
2022-12-31T01:09:17.200Z,4.55
2022-12-31T01:12:19.610Z,4.69
2022-12-31T01:15:22.055Z,4.68
2022-12-31T01:18:24.564Z,4.59
2022-12-31T01:21:27.661Z,4.63
2022-12-31T01:24:30.208Z,4.62
2022-12-31T01:27:32.631Z,4.59
2022-12-31T01:30:39.033Z,4.45
2022-12-31T01:33:42.546Z,4.56
2022-12-31T01:36:45.084Z,4.49
2022-12-31T01:39:47.709Z,4.56
2022-12-31T01:42:57.937Z,4.54
2022-12-31T01:46:00.727Z,4.68
2022-12-31T01:49:11.207Z,4.63
2022-12-31T01:52:17.033Z,4.76
2022-12-31T01:55:33.429Z,4.68
2022-12-31T01:58:42.682Z,4.66
2022-12-31T02:01:48.256Z,4.60
2022-12-31T02:04:54.567Z,4.48
2022-12-31T02:07:57.675Z,4.66
2022-12-31T02:11:00.103Z,4.65
2022-12-31T02:14:08.013Z,4.68
2022-12-31T02:17:32.583Z,4.70
2022-12-31T02:20:59.980Z,4.77
2022-12-31T02:24:16.681Z,4.67
2022-12-31T02:27:45.157Z,4.74
2022-12-31T02:30:51.721Z,4.74
2022-12-31T02:34:06.122Z,4.67
2022-12-31T02:37:12.838Z,4.49
2022-12-31T02:40:19.917Z,4.60
2022-12-31T02:43:22.549Z,4.63
2022-12-31T02:46:36.647Z,4.63
2022-12-31T02:50:00.222Z,4.72
2022-12-31T02:53:08.727Z,4.79
2022-12-31T02:56:13.919Z,4.80
2022-12-31T02:59:44.401Z,4.60
2022-12-31T03:02:49.069Z,4.54
2022-12-31T03:05:51.892Z,4.43
2022-12-31T03:09:12.810Z,4.49
2022-12-31T03:12:34.329Z,4.41
2022-12-31T03:15:37.073Z,4.66
2022-12-31T03:18:57.986Z,4.56
2022-12-31T03:22:19.558Z,4.58
2022-12-31T03:25:38.963Z,4.49
2022-12-31T03:28:47.854Z,4.35
2022-12-31T03:31:50.687Z,4.51
2022-12-31T03:34:53.207Z,4.49
2022-12-31T03:37:56.693Z,4.48
2022-12-31T03:40:59.314Z,4.49
2022-12-31T03:44:01.721Z,4.42
2022-12-31T03:47:04.218Z,4.55
2022-12-31T03:50:08.910Z,4.41
2022-12-31T03:53:11.471Z,4.47
2022-12-31T03:56:13.891Z,4.52
2022-12-31T03:59:16.537Z,4.50
2022-12-31T04:02:22.040Z,4.64
2022-12-31T04:05:29.233Z,4.58
2022-12-31T04:08:31.719Z,4.49
2022-12-31T04:11:34.249Z,4.55
2022-12-31T04:14:36.752Z,4.59
2022-12-31T04:17:39.272Z,4.46
2022-12-31T04:20:41.901Z,4.51
2022-12-31T04:23:44.501Z,4.49
2022-12-31T04:26:46.975Z,4.48
2022-12-31T04:29:49.875Z,4.38
2022-12-31T04:32:52.777Z,4.41
2022-12-31T04:36:01.606Z,4.49
2022-12-31T04:39:05.166Z,4.46
2022-12-31T04:42:07.748Z,4.54
2022-12-31T04:45:10.647Z,4.44
2022-12-31T04:48:13.157Z,4.40
2022-12-31T04:51:15.959Z,4.49
2022-12-31T04:54:18.443Z,4.45
2022-12-31T04:57:20.957Z,4.40
2022-12-31T05:00:23.489Z,4.41
2022-12-31T05:03:27.135Z,4.56
2022-12-31T05:06:29.983Z,4.53
2022-12-31T05:09:32.617Z,4.59
2022-12-31T05:12:35.057Z,4.66
2022-12-31T05:15:37.681Z,4.64
2022-12-31T05:18:40.280Z,4.58
2022-12-31T05:21:42.914Z,4.54
2022-12-31T05:24:45.347Z,4.61
2022-12-31T05:27:47.863Z,4.56
2022-12-31T05:30:51.518Z,4.63
2022-12-31T05:33:54.042Z,4.58
2022-12-31T05:36:56.446Z,4.69
2022-12-31T05:39:59.589Z,4.72
2022-12-31T05:43:02.174Z,4.74
2022-12-31T05:46:04.972Z,4.68
2022-12-31T05:49:07.708Z,4.77
2022-12-31T05:52:10.740Z,4.65
2022-12-31T05:55:13.706Z,4.75
2022-12-31T05:58:16.951Z,4.72
2022-12-31T06:01:19.539Z,4.67
2022-12-31T06:04:22.204Z,4.54
2022-12-31T06:07:24.612Z,4.60
2022-12-31T06:10:27.078Z,4.66
2022-12-31T06:13:29.985Z,4.72
2022-12-31T06:16:32.442Z,4.73
2022-12-31T06:19:36.044Z,4.77
2022-12-31T06:22:38.451Z,4.74
2022-12-31T06:25:42.084Z,4.83
2022-12-31T06:28:44.833Z,4.78
2022-12-31T06:31:47.277Z,4.61
2022-12-31T06:34:49.729Z,4.67
2022-12-31T06:37:52.455Z,4.68
2022-12-31T06:40:55.135Z,4.68
2022-12-31T06:43:57.619Z,4.71
2022-12-31T06:47:01.781Z,4.81
2022-12-31T06:50:05.344Z,4.88
2022-12-31T06:53:08.117Z,4.84
2022-12-31T06:56:34.425Z,4.79
2022-12-31T06:59:38.262Z,4.79
2022-12-31T07:03:19.969Z,4.78
2022-12-31T07:06:44.260Z,4.72
2022-12-31T07:10:15.248Z,4.80
2022-12-31T07:13:41.865Z,4.74
2022-12-31T07:16:57.579Z,4.83
2022-12-31T07:20:00.238Z,4.86
2022-12-31T07:23:03.002Z,4.92
2022-12-31T07:26:38.030Z,4.98
2022-12-31T07:30:01.977Z,5.08
2022-12-31T07:33:13.257Z,5.02
2022-12-31T07:36:53.312Z,4.99
2022-12-31T07:40:17.103Z,5.00
2022-12-31T07:43:35.402Z,4.89
2022-12-31T07:46:56.862Z,5.08
2022-12-31T07:49:59.586Z,5.11
2022-12-31T07:53:02.210Z,5.22
2022-12-31T07:56:09.812Z,5.28
2022-12-31T07:59:34.038Z,5.29
2022-12-31T08:02:55.132Z,5.35
2022-12-31T08:06:33.548Z,5.42
2022-12-31T08:09:41.766Z,5.44
2022-12-31T08:12:46.009Z,5.34
2022-12-31T08:15:48.853Z,5.48
2022-12-31T08:18:51.532Z,5.79
2022-12-31T08:22:22.081Z,5.75
2022-12-31T08:25:35.209Z,5.73
2022-12-31T08:29:21.930Z,5.70
2022-12-31T08:32:30.652Z,5.63
2022-12-31T08:36:10.534Z,5.68
2022-12-31T08:39:25.140Z,5.73
2022-12-31T08:42:37.051Z,5.60
2022-12-31T08:45:46.503Z,5.60
2022-12-31T08:48:49.318Z,5.68
2022-12-31T08:51:52.163Z,5.66
2022-12-31T08:54:54.931Z,5.75
2022-12-31T08:58:26.327Z,5.74
2022-12-31T09:01:39.917Z,5.39
2022-12-31T09:05:24.199Z,5.18
2022-12-31T09:08:41.892Z,5.20
2022-12-31T09:12:07.730Z,5.44
2022-12-31T09:15:15.829Z,5.77
2022-12-31T09:18:18.959Z,5.83
2022-12-31T09:21:21.723Z,5.93
2022-12-31T09:24:24.503Z,5.98
2022-12-31T09:27:56.131Z,5.89
2022-12-31T09:31:12.918Z,5.76
2022-12-31T09:34:26.403Z,5.75
2022-12-31T09:37:49.889Z,5.74
2022-12-31T09:41:15.958Z,6.04
2022-12-31T09:44:42.843Z,6.35
2022-12-31T09:48:13.115Z,6.78
2022-12-31T09:51:25.532Z,6.95
2022-12-31T09:54:39.191Z,6.97
2022-12-31T09:57:45.407Z,6.93
2022-12-31T10:00:58.745Z,7.00
2022-12-31T10:04:19.088Z,7.17
2022-12-31T10:07:48.786Z,7.05
2022-12-31T10:10:59.533Z,7.14
2022-12-31T10:14:23.862Z,7.20
2022-12-31T10:17:48.979Z,7.10
2022-12-31T10:21:13.281Z,7.25
2022-12-31T10:24:36.693Z,7.37
2022-12-31T10:28:05.720Z,7.34
2022-12-31T10:31:15.419Z,7.45
2022-12-31T10:34:36.879Z,7.41
2022-12-31T10:38:17.618Z,7.38
2022-12-31T10:41:33.886Z,7.17
2022-12-31T10:44:54.784Z,7.17
2022-12-31T10:48:10.689Z,6.95
2022-12-31T10:51:19.198Z,6.90
2022-12-31T10:54:48.683Z,6.91
2022-12-31T10:58:06.503Z,6.82
2022-12-31T11:01:30.495Z,6.90
2022-12-31T11:05:11.386Z,6.84
2022-12-31T11:09:07.092Z,6.90
2022-12-31T11:12:21.501Z,6.98
2022-12-31T11:15:55.185Z,6.90
2022-12-31T11:19:19.156Z,7.19
2022-12-31T11:22:42.564Z,7.32
2022-12-31T11:26:08.624Z,7.35
2022-12-31T11:30:01.328Z,7.59
2022-12-31T11:33:33.342Z,7.81
2022-12-31T11:36:44.476Z,7.95
2022-12-31T11:39:56.118Z,7.92
2022-12-31T11:43:11.100Z,8.00
2022-12-31T11:46:16.760Z,8.11
2022-12-31T11:49:26.265Z,8.29
2022-12-31T11:52:47.539Z,8.31
2022-12-31T11:56:06.617Z,8.20
2022-12-31T11:59:18.993Z,8.11
2022-12-31T12:02:29.028Z,8.22
2022-12-31T12:05:33.857Z,8.03
2022-12-31T12:08:36.664Z,8.19
2022-12-31T12:11:40.681Z,8.34
2022-12-31T12:14:45.417Z,8.47
2022-12-31T12:17:54.159Z,8.52
2022-12-31T12:21:08.731Z,8.63
2022-12-31T12:24:22.492Z,8.49
2022-12-31T12:27:30.064Z,8.51
2022-12-31T12:30:38.612Z,8.32
2022-12-31T12:33:43.835Z,8.37
2022-12-31T12:36:48.364Z,8.41
2022-12-31T12:40:02.179Z,8.34
2022-12-31T12:43:04.754Z,8.40
2022-12-31T12:46:17.308Z,8.55
2022-12-31T12:49:24.681Z,9.04
2022-12-31T12:52:41.707Z,9.25
2022-12-31T12:56:08.237Z,9.23
2022-12-31T12:59:31.991Z,9.23
2022-12-31T13:02:43.314Z,9.26
2022-12-31T13:06:07.271Z,9.02
2022-12-31T13:09:27.859Z,8.90
2022-12-31T13:13:22.091Z,8.74
2022-12-31T13:16:19.159Z,8.56
2022-12-31T13:19:31.019Z,8.72
2022-12-31T13:22:59.072Z,8.73
2022-12-31T13:26:21.773Z,8.53
2022-12-31T13:29:31.388Z,8.44
2022-12-31T13:32:59.633Z,8.47
2022-12-31T13:36:07.497Z,8.36
2022-12-31T13:39:19.205Z,8.31
2022-12-31T13:42:29.715Z,8.43
2022-12-31T13:45:41.750Z,8.42
2022-12-31T13:48:53.481Z,8.47
2022-12-31T13:52:12.607Z,8.32
2022-12-31T13:55:23.031Z,8.45
2022-12-31T13:58:31.675Z,8.43
2022-12-31T14:01:41.056Z,8.60
2022-12-31T14:04:50.686Z,8.47
2022-12-31T14:08:01.930Z,8.29
2022-12-31T14:11:18.076Z,8.22
2022-12-31T14:14:28.453Z,8.14
2022-12-31T14:17:39.165Z,8.05
2022-12-31T14:20:48.089Z,8.25
2022-12-31T14:24:21.748Z,8.11
2022-12-31T14:27:29.796Z,8.08
2022-12-31T14:30:40.401Z,7.98
2022-12-31T14:34:06.673Z,7.89
2022-12-31T14:37:24.192Z,7.94
2022-12-31T14:40:31.034Z,7.99
2022-12-31T14:44:03.502Z,7.92
2022-12-31T14:47:08.697Z,7.87
2022-12-31T14:50:11.194Z,7.83
2022-12-31T14:53:25.198Z,7.67
2022-12-31T14:56:44.739Z,7.56
2022-12-31T15:00:01.376Z,7.31
2022-12-31T15:03:14.679Z,7.54
2022-12-31T15:06:23.363Z,7.46
2022-12-31T15:09:58.230Z,7.45
2022-12-31T15:13:03.469Z,7.52
2022-12-31T15:16:35.360Z,7.53
2022-12-31T15:19:58.407Z,7.66
2022-12-31T15:23:01.045Z,7.57
2022-12-31T15:26:05.491Z,7.44
2022-12-31T15:29:24.353Z,7.62
2022-12-31T15:32:36.995Z,7.50
2022-12-31T15:35:55.135Z,7.59
2022-12-31T15:39:05.363Z,7.53
2022-12-31T15:42:49.853Z,7.51
2022-12-31T15:45:55.803Z,7.48
2022-12-31T15:49:06.829Z,7.45
2022-12-31T15:52:20.685Z,7.51
2022-12-31T15:55:29.208Z,7.47
2022-12-31T15:58:35.923Z,7.34
2022-12-31T16:01:41.469Z,7.15
2022-12-31T16:04:44.534Z,7.15
2022-12-31T16:07:47.423Z,6.99
2022-12-31T16:10:50.325Z,6.95
2022-12-31T16:13:56.037Z,6.84
2022-12-31T16:17:00.871Z,6.90
2022-12-31T16:20:31.406Z,6.89
2022-12-31T16:23:37.477Z,6.78
2022-12-31T16:26:48.235Z,6.58
2022-12-31T16:30:00.898Z,6.59
2022-12-31T16:33:07.063Z,6.34
2022-12-31T16:36:23.641Z,6.38
2022-12-31T16:39:32.348Z,6.25
2022-12-31T16:42:44.149Z,6.27
2022-12-31T16:45:47.108Z,6.19
2022-12-31T16:48:59.190Z,6.31
2022-12-31T16:52:22.940Z,6.37
2022-12-31T16:55:28.798Z,6.24
2022-12-31T16:58:34.650Z,6.17
2022-12-31T17:01:38.236Z,6.10
2022-12-31T17:04:46.923Z,6.01
2022-12-31T17:07:52.973Z,5.96
2022-12-31T17:10:56.527Z,6.03
2022-12-31T17:14:13.304Z,6.02
2022-12-31T17:17:27.781Z,5.98
2022-12-31T17:20:33.387Z,6.00
2022-12-31T17:23:39.646Z,6.04
2022-12-31T17:26:42.617Z,5.87
2022-12-31T17:29:45.215Z,5.94
2022-12-31T17:32:50.086Z,6.11
2022-12-31T17:36:17.291Z,6.08
2022-12-31T17:39:22.922Z,6.10
2022-12-31T17:42:37.593Z,6.12
2022-12-31T17:45:43.222Z,6.10
2022-12-31T17:48:51.937Z,6.03
2022-12-31T17:51:54.378Z,6.09
2022-12-31T17:54:57.178Z,6.02
2022-12-31T17:58:04.995Z,5.92
2022-12-31T18:01:08.980Z,6.00
2022-12-31T18:04:14.333Z,5.86
2022-12-31T18:07:16.795Z,5.66
2022-12-31T18:10:24.268Z,5.71
2022-12-31T18:13:27.748Z,5.63
2022-12-31T18:16:30.629Z,5.68
2022-12-31T18:22:55.981Z,5.47
2022-12-31T18:25:58.373Z,5.47
2022-12-31T18:29:12.192Z,5.51
2022-12-31T18:32:26.060Z,5.51
2022-12-31T18:38:50.950Z,5.48
2022-12-31T18:41:54.152Z,5.66
2022-12-31T18:44:56.643Z,5.58
2022-12-31T18:47:59.108Z,5.61
2022-12-31T18:51:01.599Z,5.67
2022-12-31T18:54:04.995Z,5.76
2022-12-31T18:57:07.543Z,5.81
2022-12-31T19:00:11.133Z,5.69
2022-12-31T19:03:21.723Z,5.68
2022-12-31T19:06:25.783Z,5.58
2022-12-31T19:09:45.247Z,5.63
2022-12-31T19:12:48.960Z,5.53
2022-12-31T19:15:53.356Z,5.51
2022-12-31T19:18:55.851Z,5.30
2022-12-31T19:21:58.304Z,5.26
2022-12-31T19:25:00.705Z,5.13
2022-12-31T19:28:06.256Z,5.11
2022-12-31T19:31:08.722Z,5.19
2022-12-31T19:34:11.550Z,5.05
2022-12-31T19:37:15.789Z,4.91
2022-12-31T19:40:22.119Z,4.98
2022-12-31T19:43:24.775Z,4.89
2022-12-31T19:46:28.478Z,4.80
2022-12-31T19:49:31.124Z,4.75
2022-12-31T19:52:33.561Z,4.77
2022-12-31T19:55:35.939Z,4.78
2022-12-31T19:58:38.604Z,4.63
2022-12-31T20:01:41.354Z,4.63
2022-12-31T20:04:43.946Z,4.63
2022-12-31T20:07:47.026Z,4.50
2022-12-31T20:10:50.557Z,4.70
2022-12-31T20:13:54.121Z,4.56
2022-12-31T20:16:56.755Z,4.59
2022-12-31T20:19:59.364Z,4.52
2022-12-31T20:23:02.712Z,4.53
2022-12-31T20:26:05.391Z,4.40
2022-12-31T20:29:07.887Z,4.34
2022-12-31T20:32:10.469Z,4.38
2022-12-31T20:35:12.877Z,4.32
2022-12-31T20:38:15.446Z,4.39
2022-12-31T20:41:21.328Z,4.35
2022-12-31T20:44:23.765Z,4.22
2022-12-31T20:47:26.185Z,4.26
2022-12-31T20:50:28.675Z,4.24
2022-12-31T20:53:31.102Z,4.11
2022-12-31T20:56:36.034Z,4.01
2022-12-31T20:59:38.550Z,4.09
2022-12-31T21:02:43.036Z,4.11
2022-12-31T21:05:54.559Z,4.19
2022-12-31T21:08:59.384Z,4.19
2022-12-31T21:12:20.570Z,4.03
2022-12-31T21:15:23.063Z,4.16
2022-12-31T21:18:25.917Z,4.09
2022-12-31T21:21:28.658Z,4.13
2022-12-31T21:24:31.163Z,4.16
2022-12-31T21:27:35.356Z,4.10
2022-12-31T21:30:39.954Z,4.10
2022-12-31T21:33:47.143Z,4.14
2022-12-31T21:36:49.595Z,4.22
2022-12-31T21:39:52.057Z,4.10
2022-12-31T21:42:54.869Z,4.20
2022-12-31T21:46:05.580Z,4.09
2022-12-31T21:49:08.111Z,4.15
2022-12-31T21:52:26.816Z,4.12
2022-12-31T21:55:47.673Z,4.06
2022-12-31T21:59:15.331Z,4.09
2022-12-31T22:02:36.172Z,3.97
2022-12-31T22:05:46.917Z,3.96
2022-12-31T22:08:53.173Z,3.79
2022-12-31T22:11:55.762Z,3.93
2022-12-31T22:15:14.538Z,3.86
2022-12-31T22:18:18.812Z,3.96
2022-12-31T22:21:23.973Z,3.91
2022-12-31T22:24:26.472Z,3.74
2022-12-31T22:27:30.052Z,3.79
2022-12-31T22:30:34.490Z,3.80
2022-12-31T22:33:37.156Z,3.77
2022-12-31T22:36:39.715Z,3.74
2022-12-31T22:39:44.085Z,3.73
2022-12-31T22:42:47.391Z,3.63
2022-12-31T22:45:49.800Z,3.61
2022-12-31T22:48:53.740Z,3.62
2022-12-31T22:52:00.737Z,3.50
2022-12-31T22:55:05.848Z,3.42
2022-12-31T22:58:08.277Z,3.50
2022-12-31T23:01:22.037Z,3.56
2022-12-31T23:04:24.479Z,3.57
2022-12-31T23:07:27.028Z,3.46
2022-12-31T23:10:48.445Z,3.55
2022-12-31T23:14:09.820Z,3.51
2022-12-31T23:17:37.160Z,3.46
2022-12-31T23:20:58.920Z,3.51
2022-12-31T23:24:04.336Z,3.46
2022-12-31T23:27:07.637Z,3.48
2022-12-31T23:30:11.600Z,3.46
2022-12-31T23:33:17.484Z,3.38
2022-12-31T23:36:19.999Z,3.32
2022-12-31T23:39:22.668Z,3.25
2022-12-31T23:42:25.196Z,3.19
2022-12-31T23:45:32.872Z,3.13
2022-12-31T23:48:35.959Z,3.22
2022-12-31T23:51:40.242Z,3.11
2022-12-31T23:54:42.729Z,3.21
2022-12-31T23:57:45.246Z,3.05
